Terminal Aerodrome Forecast
Issued by NWS

Home | Current Version | Previous Version | Text Only | Print | Product List | Glossary Off
Versions: 1 2 3 4 5 6 7 8 9 10 11 12 13 14 15 16 17 18 19 20 21

000
FTUS43 KABR 291343 AAA
TAFMBG
TAF AMD
KMBG 291343Z 2914/3012 VRB06KT 5SM BR SKC
      TEMPO 2914/2915 P6SM NSW
     FM291500 19009KT P6SM SCT250
     FM300200 14009KT P6SM SKC=

USA.gov is the U.S. government's official web portal to all federal, state and local government web resources and services.